Time;durP1;ratioP1;P1;durP2;ratioP2;P2;SDS_P1;SDS_P2;PMS_P1;PMS_P2;Temp;Humidity;BMP_temperature;BMP_pressure;BME280_temperature;BME280_humidity;BME280_pressure;Samples;Min_cycle;Max_cycle;Signal;HPM_P1;HPM_P2
2022/09/29 04:02:07;;;;;;;5.60;5.30;;;6.20;99.90;;;;;;6141009;22;1920498;-71
2022/09/29 04:04:34;;;;;;;5.20;4.70;;;6.10;99.90;;;;;;6273043;22;20182;-71
2022/09/29 04:07:00;;;;;;;12.98;3.00;;;6.10;99.90;;;;;;6273890;22;20284;-69
2022/09/29 04:09:27;;;;;;;5.00;4.40;;;6.10;99.90;;;;;;6271809;22;20565;-70
2022/09/29 04:11:54;;;;;;;5.43;3.30;;;6.10;99.90;;;;;;6248445;22;20210;-69
2022/09/29 04:14:20;;;;;;;4.00;3.45;;;6.10;99.90;;;;;;6241586;23;20192;-73
2022/09/29 04:16:47;;;;;;;14.30;2.92;;;6.10;99.90;;;;;;6240618;23;20247;-69
2022/09/29 04:19:15;;;;;;;4.00;3.75;;;6.00;99.90;;;;;;6240959;23;20188;-71
2022/09/29 04:21:42;;;;;;;5.78;4.28;;;6.00;99.90;;;;;;6241858;22;20523;-70
2022/09/29 04:24:09;;;;;;;7.65;5.20;;;6.10;99.90;;;;;;6241432;23;20184;-70
2022/09/29 04:26:35;;;;;;;3.35;2.75;;;6.00;99.90;;;;;;6239759;23;20181;-70
2022/09/29 04:29:02;;;;;;;3.63;2.22;;;6.00;99.90;;;;;;6242399;23;20182;-70
2022/09/29 04:31:29;;;;;;;3.63;1.90;;;6.00;99.90;;;;;;6241385;22;20198;-70
2022/09/29 04:33:56;;;;;;;11.93;3.10;;;6.00;99.90;;;;;;6239227;23;20182;-69
2022/09/29 04:36:24;;;;;;;4.20;3.90;;;6.00;99.90;;;;;;6241716;23;20186;-70
2022/09/29 04:38:51;;;;;;;3.40;3.05;;;6.00;99.90;;;;;;6242206;23;20180;-70
2022/09/29 04:41:17;;;;;;;2.85;2.65;;;5.90;99.90;;;;;;6240416;22;20202;-70
2022/09/29 04:43:44;;;;;;;11.07;3.50;;;5.90;99.90;;;;;;6241450;23;20177;-69
2022/09/29 04:46:11;;;;;;;5.25;4.55;;;5.90;99.90;;;;;;6241563;23;20356;-70
2022/09/29 04:48:38;;;;;;;4.05;3.40;;;5.90;99.90;;;;;;6240998;23;20192;-70
2022/09/29 04:51:06;;;;;;;2.83;2.72;;;5.90;99.90;;;;;;6241617;22;20195;-70
2022/09/29 04:53:34;;;;;;;4.40;2.97;;;5.90;99.90;;;;;;6241843;23;20218;-70
2022/09/29 04:56:05;;;;;;;6.65;4.97;;;5.90;99.90;;;;;;6240924;23;20201;-70
2022/09/29 04:58:32;;;;;;;3.45;2.63;;;5.90;99.90;;;;;;6241560;23;20173;-70
2022/09/29 05:01:07;;;;;;;3.03;2.92;;;5.80;99.90;;;;;;6240793;22;20673;-70
2022/09/29 05:03:34;;;;;;;7.70;4.55;;;5.80;99.90;;;;;;6240943;23;20163;-70
2022/09/29 05:06:01;;;;;;;3.72;3.40;;;5.80;99.90;;;;;;6241324;23;20178;-70
2022/09/29 05:08:28;;;;;;;6.05;4.57;;;5.80;99.90;;;;;;6241944;23;20453;-70
2022/09/29 05:10:56;;;;;;;3.05;2.38;;;5.80;99.90;;;;;;6241647;22;20203;-70
2022/09/29 05:13:23;;;;;;;3.05;2.72;;;5.80;99.90;;;;;;6240287;23;20182;-70
2022/09/29 05:15:54;;;;;;;5.57;5.03;;;5.80;99.90;;;;;;6240978;23;20182;-70
2022/09/29 05:18:21;;;;;;;10.68;4.22;;;5.80;99.90;;;;;;6240311;23;20173;-70
2022/09/29 05:20:48;;;;;;;2.58;2.45;;;5.70;99.90;;;;;;6241222;22;20492;-70
2022/09/29 05:23:14;;;;;;;26.85;17.25;;;5.70;99.90;;;;;;6241858;23;20206;-70
2022/09/29 05:25:42;;;;;;;9.10;6.50;;;5.80;99.90;;;;;;6243907;23;20189;-70
2022/09/29 05:28:11;;;;;;;47.30;27.52;;;5.80;99.90;;;;;;6243627;23;20700;-70
2022/09/29 05:30:37;;;;;;;53.05;23.23;;;5.80;99.90;;;;;;6243168;22;20686;-70
2022/09/29 05:33:04;;;;;;;17.10;12.32;;;5.80;99.90;;;;;;6242718;23;20178;-70
2022/09/29 05:35:31;;;;;;;8.20;6.93;;;5.80;99.90;;;;;;6242223;23;20185;-70
2022/09/29 05:37:58;;;;;;;7.22;6.47;;;5.80;99.90;;;;;;6244238;23;20264;-70
2022/09/29 05:40:25;;;;;;;5.50;4.75;;;5.80;99.90;;;;;;6243367;22;20185;-70
2022/09/29 05:42:53;;;;;;;7.18;5.35;;;5.80;99.90;;;;;;6242779;23;20631;-70
2022/09/29 05:45:21;;;;;;;6.53;4.93;;;5.80;99.90;;;;;;6243120;23;20177;-70
2022/09/29 05:47:47;;;;;;;24.15;13.90;;;5.90;99.90;;;;;;6238635;23;20615;-70
2022/09/29 05:50:14;;;;;;;9.57;6.85;;;5.90;99.90;;;;;;6242937;22;20200;-69
2022/09/29 05:52:41;;;;;;;9.32;4.00;;;5.90;99.90;;;;;;6243876;23;20488;-70
2022/09/29 05:55:09;;;;;;;8.73;5.35;;;6.00;99.90;;;;;;6242863;23;20516;-70
2022/09/29 05:57:36;;;;;;;10.43;7.40;;;6.00;99.90;;;;;;6243114;23;20186;-70
2022/09/29 06:00:05;;;;;;;5.22;4.72;;;6.10;99.90;;;;;;6242888;23;20189;-64
2022/09/29 06:02:33;;;;;;;5.65;5.15;;;6.10;99.90;;;;;;6241927;22;20260;-63
2022/09/29 06:05:00;;;;;;;8.60;5.35;;;6.20;99.90;;;;;;6243158;23;20245;-64
2022/09/29 06:07:26;;;;;;;9.02;4.63;;;6.30;99.90;;;;;;6242744;23;20182;-64
2022/09/29 06:09:53;;;;;;;6.28;4.38;;;6.30;99.90;;;;;;6242745;23;20182;-64
2022/09/29 06:12:20;;;;;;;8.10;4.18;;;6.30;99.90;;;;;;6244086;22;20194;-64
2022/09/29 06:14:47;;;;;;;8.65;5.88;;;6.40;99.90;;;;;;6241769;23;20247;-64
2022/09/29 06:17:14;;;;;;;4.55;4.13;;;6.40;99.90;;;;;;6242491;23;20186;-64
2022/09/29 06:19:42;;;;;;;5.22;4.72;;;6.50;99.90;;;;;;6242031;23;20194;-64
2022/09/29 06:22:09;;;;;;;6.97;5.88;;;6.60;99.90;;;;;;6242743;22;20202;-64
2022/09/29 06:24:35;;;;;;;11.00;5.63;;;6.60;99.90;;;;;;6241660;23;20187;-64
2022/09/29 06:27:02;;;;;;;7.43;6.72;;;6.70;99.90;;;;;;6243301;23;20178;-65
2022/09/29 06:29:29;;;;;;;10.65;8.88;;;6.70;99.90;;;;;;6243460;23;20183;-64
2022/09/29 06:31:56;;;;;;;8.23;7.53;;;6.80;99.90;;;;;;6242725;22;20641;-70
2022/09/29 06:34:22;;;;;;;10.07;9.05;;;6.80;99.90;;;;;;6241277;23;20182;-70
2022/09/29 06:39:34;;;;;;;11.35;7.00;;;6.90;99.90;;;;;;6243053;23;20184;-70
2022/09/29 06:42:02;;;;;;;13.38;9.75;;;7.00;99.90;;;;;;6242646;22;20207;-73
2022/09/29 06:44:29;;;;;;;14.43;7.28;;;7.10;99.90;;;;;;6242387;23;20668;-71
2022/09/29 06:46:57;;;;;;;12.68;7.82;;;7.30;99.90;;;;;;6241975;23;20201;-71
2022/09/29 06:49:24;;;;;;;13.73;7.03;;;7.30;99.90;;;;;;6245011;23;20178;-70
2022/09/29 06:51:53;;;;;;;10.07;6.25;;;7.40;99.90;;;;;;6243110;22;20205;-70
2022/09/29 06:54:23;;;;;;;9.02;6.20;;;7.40;99.90;;;;;;6241828;23;20758;-71
2022/09/29 06:56:51;;;;;;;12.73;9.20;;;7.40;99.90;;;;;;6241548;23;20185;-71
2022/09/29 06:59:18;;;;;;;12.27;9.63;;;7.50;99.90;;;;;;6243133;23;20178;-71
2022/09/29 07:01:49;;;;;;;16.50;6.82;;;7.60;99.90;;;;;;6240902;22;20961;-70
2022/09/29 07:04:15;;;;;;;11.27;6.03;;;7.70;99.90;;;;;;6241846;23;20172;-71
2022/09/29 07:06:42;;;;;;;7.90;7.10;;;7.70;99.90;;;;;;6242789;23;20187;-70
2022/09/29 07:09:14;;;;;;;13.32;9.18;;;7.70;99.90;;;;;;6242493;23;20580;-72
2022/09/29 07:11:44;;;;;;;9.15;8.25;;;7.80;99.90;;;;;;6251617;22;20282;-72
2022/09/29 07:14:10;;;;;;;12.45;9.35;;;7.80;99.90;;;;;;6241451;23;20253;-72
2022/09/29 07:16:37;;;;;;;15.52;9.02;;;7.90;99.90;;;;;;6240009;23;20183;-72
2022/09/29 07:19:04;;;;;;;19.52;9.80;;;8.00;99.90;;;;;;6241951;23;20180;-73
2022/09/29 07:21:31;;;;;;;14.48;8.65;;;8.10;99.90;;;;;;6242327;22;20203;-71
2022/09/29 07:23:57;;;;;;;10.38;7.25;;;8.20;99.90;;;;;;6242630;23;20186;-72
2022/09/29 07:26:25;;;;;;;10.20;6.85;;;8.20;99.90;;;;;;6241589;23;20179;-72
2022/09/29 07:28:52;;;;;;;13.15;8.13;;;8.30;99.90;;;;;;6243175;23;20203;-71
2022/09/29 07:31:20;;;;;;;16.00;9.95;;;8.40;99.90;;;;;;6241328;22;20203;-71
2022/09/29 07:33:49;;;;;;;14.15;8.45;;;8.40;99.90;;;;;;6238451;23;20176;-70
2022/09/29 07:36:18;;;;;;;8.68;6.10;;;8.40;99.90;;;;;;6241603;23;20185;-71
2022/09/29 07:38:46;;;;;;;12.15;8.27;;;8.50;99.90;;;;;;6242468;23;20184;-70
2022/09/29 07:41:13;;;;;;;12.55;7.13;;;8.70;99.90;;;;;;6242233;22;20206;-70
2022/09/29 07:43:41;;;;;;;13.57;8.38;;;8.70;99.90;;;;;;6242686;23;20536;-71
2022/09/29 07:46:08;;;;;;;13.25;9.55;;;8.90;99.90;;;;;;6238581;23;20182;-69
2022/09/29 07:48:36;;;;;;;8.15;7.05;;;9.10;99.90;;;;;;6240138;23;20193;-68
2022/09/29 07:51:06;;;;;;;9.38;8.52;;;9.10;99.90;;;;;;6240091;22;20205;-69
2022/09/29 07:53:35;;;;;;;7.60;6.78;;;9.00;99.90;;;;;;6239640;23;20178;-70
2022/09/29 07:56:03;;;;;;;10.80;7.53;;;9.10;99.90;;;;;;6239293;23;20189;-69
2022/09/29 07:58:32;;;;;;;9.50;6.85;;;9.00;99.90;;;;;;6239203;23;20180;-70
2022/09/29 08:01:00;;;;;;;18.83;7.47;;;9.00;99.90;;;;;;6240046;22;20549;-70
2022/09/29 08:03:28;;;;;;;8.00;6.28;;;9.00;99.90;;;;;;6240067;23;20691;-71
2022/09/29 08:05:56;;;;;;;10.93;6.32;;;9.10;99.90;;;;;;6239998;23;20192;-70
2022/09/29 08:08:24;;;;;;;10.57;7.72;;;9.20;99.90;;;;;;6240656;23;20174;-70
2022/09/29 08:10:51;;;;;;;11.80;9.45;;;9.40;99.90;;;;;;6241024;22;20203;-70
2022/09/29 08:13:18;;;;;;;12.20;7.95;;;9.50;99.90;;;;;;6241604;23;20408;-69
2022/09/29 08:15:44;;;;;;;8.80;6.75;;;9.70;99.90;;;;;;6241873;23;20189;-72
2022/09/29 08:18:12;;;;;;;6.03;5.22;;;9.80;99.90;;;;;;6241130;23;20188;-73
2022/09/29 08:20:39;;;;;;;10.45;8.57;;;9.80;99.90;;;;;;6242178;22;20206;-71
2022/09/29 08:23:06;;;;;;;11.68;7.10;;;9.80;99.90;;;;;;6242430;23;20198;-69
2022/09/29 08:25:34;;;;;;;7.15;6.32;;;9.90;99.90;;;;;;6242068;23;20190;-71
2022/09/29 08:28:01;;;;;;;7.53;6.50;;;10.00;99.90;;;;;;6243366;23;20182;-71
2022/09/29 08:30:28;;;;;;;7.15;4.60;;;10.20;99.90;;;;;;6241823;22;20188;-71
2022/09/29 08:32:55;;;;;;;8.07;6.20;;;10.30;99.90;;;;;;6241394;23;20178;-70
2022/09/29 08:35:24;;;;;;;8.80;6.57;;;10.50;99.90;;;;;;6242591;23;20179;-71
2022/09/29 08:37:50;;;;;;;9.50;7.30;;;10.50;99.90;;;;;;6241608;23;20214;-71
2022/09/29 08:40:18;;;;;;;6.00;5.28;;;10.60;99.90;;;;;;6240636;22;20198;-72
2022/09/29 08:42:54;;;;;;;9.52;6.65;;;10.50;99.90;;;;;;6240414;23;20289;-70
2022/09/29 08:45:28;;;;;;;5.65;5.15;;;10.50;99.90;;;;;;6239817;23;20166;-69
2022/09/29 08:48:03;;;;;;;8.70;6.07;;;10.40;99.90;;;;;;6238355;23;20170;-71
2022/09/29 08:50:35;;;;;;;11.55;7.53;;;10.50;99.90;;;;;;6238651;22;20162;-71
2022/09/29 08:53:06;;;;;;;7.78;6.93;;;10.70;99.90;;;;;;6238232;23;20163;-68
2022/09/29 08:55:41;;;;;;;9.07;7.05;;;10.80;99.90;;;;;;6241526;23;20170;-71
2022/09/29 08:58:12;;;;;;;7.25;5.30;;;10.80;99.90;;;;;;6238626;23;20177;-71
2022/09/29 09:00:43;;;;;;;8.45;6.32;;;10.90;99.90;;;;;;6240222;22;20311;-70
2022/09/29 09:03:22;;;;;;;14.05;9.05;;;11.00;99.90;;;;;;6237178;23;20193;-71
2022/09/29 09:06:17;;;;;;;8.30;6.03;;;11.10;99.90;;;;;;6238322;23;20166;-71
2022/09/29 09:09:10;;;;;;;7.25;6.45;;;11.20;99.90;;;;;;6239821;23;20188;-70
2022/09/29 09:11:52;;;;;;;11.00;8.00;;;11.30;99.90;;;;;;6243978;22;20220;-70
2022/09/29 09:14:43;;;;;;;8.60;6.63;;;11.30;99.90;;;;;;6249782;23;20169;-70
2022/09/29 09:17:21;;;;;;;5.97;5.40;;;11.30;99.90;;;;;;6245864;23;20641;-69
2022/09/29 09:20:01;;;;;;;6.75;6.03;;;11.40;99.90;;;;;;6246432;23;20166;-69
2022/09/29 09:22:38;;;;;;;13.68;5.85;;;11.40;99.90;;;;;;6246321;22;20222;-69
2022/09/29 09:25:10;;;;;;;8.63;7.10;;;11.40;99.90;;;;;;6245807;23;20167;-70
2022/09/29 09:27:42;;;;;;;6.78;6.13;;;11.60;99.90;;;;;;6243999;23;20897;-71
2022/09/29 09:30:15;;;;;;;18.47;9.97;;;11.80;99.90;;;;;;6245247;23;20250;-71
2022/09/29 09:32:47;;;;;;;5.97;5.37;;;11.80;99.90;;;;;;6246476;23;20405;-71
2022/09/29 09:35:28;;;;;;;6.33;5.90;;;11.80;99.90;;;;;;6245652;23;20406;-70
2022/09/29 09:38:02;;;;;;;7.68;6.97;;;11.80;99.90;;;;;;6241935;23;20494;-71
2022/09/29 09:40:35;;;;;;;7.43;6.33;;;11.80;99.90;;;;;;6242210;22;20167;-71
2022/09/29 09:43:09;;;;;;;6.63;5.83;;;11.70;99.90;;;;;;6252063;23;20769;-70
2022/09/29 09:45:41;;;;;;;8.93;5.63;;;11.70;99.90;;;;;;6241867;23;20462;-69
2022/09/29 09:48:13;;;;;;;7.97;5.40;;;11.70;99.90;;;;;;6242350;23;20410;-70
2022/09/29 09:50:42;;;;;;;9.00;7.40;;;11.80;99.90;;;;;;6242515;22;20449;-68
2022/09/29 09:53:15;;;;;;;7.83;7.13;;;12.00;99.90;;;;;;6242786;23;20476;-71
2022/09/29 09:55:42;;;;;;;7.73;6.90;;;12.10;99.90;;;;;;6242947;23;20416;-70
2022/09/29 09:58:57;;;;;;;4.40;3.90;;;12.30;99.90;;;;;;6242551;23;20422;-69
2022/09/29 10:01:25;;;;;;;5.47;4.67;;;12.50;99.90;;;;;;6087169;23;20475;-70
2022/09/29 10:03:52;;;;;;;7.00;5.77;;;12.50;99.90;;;;;;6089452;23;20462;-70
2022/09/29 10:06:18;;;;;;;5.70;4.20;;;12.50;99.90;;;;;;6152648;23;20936;-70
2022/09/29 10:08:46;;;;;;;6.40;4.17;;;12.50;99.90;;;;;;6212036;23;20432;-70
2022/09/29 10:11:24;;;;;;;7.70;5.53;;;12.60;99.90;;;;;;6209904;23;20442;-71
2022/09/29 10:13:58;;;;;;;5.33;4.90;;;12.90;99.90;;;;;;6213268;23;20409;-71
2022/09/29 10:16:30;;;;;;;6.27;5.63;;;13.00;99.90;;;;;;6211754;23;20407;-71
2022/09/29 10:18:57;;;;;;;5.10;4.63;;;13.10;99.90;;;;;;6213211;23;20529;-70
2022/09/29 10:21:37;;;;;;;5.10;4.70;;;13.10;99.90;;;;;;6225521;22;20545;-69
2022/09/29 10:24:19;;;;;;;4.83;4.50;;;13.10;99.90;;;;;;6253086;23;20438;-70
2022/09/29 10:26:47;;;;;;;4.13;3.83;;;13.00;99.90;;;;;;6243544;23;20407;-69
2022/09/29 10:29:23;;;;;;;4.47;4.20;;;13.00;99.90;;;;;;6241651;23;20446;-70
2022/09/29 10:32:02;;;;;;;5.43;4.93;;;13.00;99.90;;;;;;6241890;22;20474;-70
2022/09/29 10:34:30;;;;;;;4.37;3.80;;;12.80;99.90;;;;;;6240171;23;20419;-70
2022/09/29 10:37:00;;;;;;;4.50;4.10;;;12.80;99.90;;;;;;6242566;23;20449;-69
2022/09/29 10:39:34;;;;;;;4.47;4.07;;;12.70;99.90;;;;;;6242521;23;20486;-69
2022/09/29 10:42:03;;;;;;;3.87;3.57;;;12.80;99.90;;;;;;6242159;22;20446;-71
2022/09/29 10:44:32;;;;;;;5.10;4.60;;;12.80;99.90;;;;;;6242719;23;20488;-70
2022/09/29 10:47:00;;;;;;;5.93;5.20;;;12.80;99.90;;;;;;6243252;23;20678;-69
2022/09/29 10:49:28;;;;;;;4.37;3.97;;;12.80;99.90;;;;;;6243979;23;20422;-70
2022/09/29 10:51:59;;;;;;;3.83;3.53;;;12.70;99.90;;;;;;6241091;22;20449;-70
2022/09/29 10:54:27;;;;;;;10.07;5.30;;;12.70;99.90;;;;;;6243032;23;20474;-71
2022/09/29 10:56:57;;;;;;;8.47;5.40;;;12.80;99.90;;;;;;6242986;23;20447;-70
2022/09/29 10:59:25;;;;;;;6.13;5.63;;;13.10;99.90;;;;;;6242427;23;20407;-70
2022/09/29 11:01:55;;;;;;;4.77;4.23;;;13.20;99.90;;;;;;6240991;22;20443;-71
2022/09/29 11:04:26;;;;;;;6.60;5.60;;;13.30;99.90;;;;;;6241073;23;20439;-70
2022/09/29 11:06:53;;;;;;;5.47;4.83;;;13.60;99.90;;;;;;6242068;23;20407;-70
2022/09/29 11:09:29;;;;;;;4.73;4.33;;;13.70;99.90;;;;;;6241302;23;20492;-70
2022/09/29 11:11:58;;;;;;;9.23;5.90;;;13.90;99.90;;;;;;6241733;22;20443;-71
2022/09/29 11:14:26;;;;;;;4.20;3.90;;;14.00;99.90;;;;;;6241011;23;20431;-70
2022/09/29 11:16:55;;;;;;;3.73;3.43;;;14.10;99.90;;;;;;6242504;23;20435;-70
2022/09/29 11:19:22;;;;;;;4.03;3.80;;;14.00;99.90;;;;;;6242320;23;20473;-70
2022/09/29 11:22:14;;;;;;;4.70;4.30;;;14.00;99.90;;;;;;6241346;22;20796;-70
2022/09/29 11:25:09;;;;;;;4.77;4.37;;;14.00;99.90;;;;;;6242313;23;20435;-69
2022/09/29 11:27:48;;;;;;;3.07;2.83;;;14.00;99.90;;;;;;6242773;23;20423;-67
2022/09/29 11:30:16;;;;;;;3.47;3.17;;;14.20;99.90;;;;;;6240118;23;20439;-71
2022/09/29 11:33:00;;;;;;;6.87;5.23;;;14.30;99.90;;;;;;6240180;23;20423;-70
2022/09/29 11:35:39;;;;;;;4.50;3.37;;;14.30;99.90;;;;;;6242283;23;20447;-69
2022/09/29 11:38:26;;;;;;;4.67;4.30;;;14.30;99.90;;;;;;6241300;23;20427;-69
2022/09/29 11:41:04;;;;;;;4.03;3.80;;;14.30;99.90;;;;;;6236574;22;20559;-70
2022/09/29 11:43:46;;;;;;;3.73;3.43;;;14.30;99.90;;;;;;6241522;23;20556;-71
2022/09/29 11:46:30;;;;;;;5.40;4.90;;;14.40;99.90;;;;;;6243144;23;20770;-70
2022/09/29 11:49:19;;;;;;;7.57;4.27;;;14.50;99.90;;;;;;6240393;23;20893;-70
2022/09/29 11:52:12;;;;;;;5.47;5.00;;;14.50;99.90;;;;;;6251520;22;20637;-71
2022/09/29 11:54:58;;;;;;;5.93;4.60;;;14.40;99.90;;;;;;6240930;23;20403;-70
2022/09/29 11:57:40;;;;;;;4.13;3.60;;;14.30;99.90;;;;;;6241803;23;20407;-70
2022/09/29 12:00:12;;;;;;;7.27;4.60;;;14.30;99.90;;;;;;6241060;23;20414;-70
2022/09/29 12:03:05;;;;;;;3.40;3.20;;;14.30;99.90;;;;;;6240784;22;20447;-70
2022/09/29 12:05:43;;;;;;;4.10;3.73;;;14.40;99.90;;;;;;6243812;23;20408;-71
2022/09/29 12:08:22;;;;;;;4.53;4.27;;;14.40;99.90;;;;;;6242197;23;20468;-70
2022/09/29 12:10:58;;;;;;;3.70;3.40;;;14.40;99.90;;;;;;6241749;22;20436;-70
2022/09/29 12:13:38;;;;;;;3.60;3.30;;;14.50;99.90;;;;;;6242046;23;20407;-70
2022/09/29 12:16:11;;;;;;;4.30;3.90;;;14.50;99.90;;;;;;6241423;23;20558;-70
2022/09/29 12:18:40;;;;;;;3.47;3.20;;;14.60;99.90;;;;;;6242071;23;20409;-70
2022/09/29 12:21:09;;;;;;;5.13;4.83;;;14.70;99.90;;;;;;6242360;22;20443;-70
2022/09/29 12:23:40;;;;;;;2.77;2.37;;;14.70;99.90;;;;;;6242105;23;20433;-71
2022/09/29 12:26:10;;;;;;;4.50;4.10;;;14.80;99.90;;;;;;6240678;23;20867;-70
2022/09/29 12:28:43;;;;;;;3.37;3.20;;;14.70;99.90;;;;;;6242867;23;20780;-71
2022/09/29 12:31:16;;;;;;;3.37;3.07;;;14.70;99.90;;;;;;6241158;22;20546;-71
2022/09/29 12:33:45;;;;;;;4.00;3.70;;;14.70;99.90;;;;;;6241161;23;20890;-71
2022/09/29 12:36:44;;;;;;;3.37;3.07;;;14.90;99.90;;;;;;6242368;23;20421;-71
2022/09/29 12:39:24;;;;;;;3.40;2.60;;;15.10;99.90;;;;;;6241457;23;20754;-71
2022/09/29 12:41:56;;;;;;;2.40;2.30;;;15.10;99.90;;;;;;6252569;22;20913;-71
2022/09/29 12:44:30;;;;;;;5.53;2.10;;;15.10;99.90;;;;;;6241794;23;20523;-69
2022/09/29 12:47:04;;;;;;;3.37;2.53;;;15.00;99.90;;;;;;6241514;23;20784;-70
2022/09/29 12:49:37;;;;;;;2.10;2.00;;;15.00;99.90;;;;;;6242396;23;20825;-71
2022/09/29 12:52:09;;;;;;;2.80;2.60;;;15.00;99.90;;;;;;6242723;22;20452;-71
2022/09/29 12:54:43;;;;;;;2.50;2.40;;;15.00;99.90;;;;;;6241920;23;20408;-70
2022/09/29 12:57:14;;;;;;;3.30;2.60;;;14.80;99.90;;;;;;6240078;23;20501;-71
2022/09/29 12:59:45;;;;;;;2.50;2.23;;;14.80;99.90;;;;;;6239659;23;20405;-71
2022/09/29 13:02:47;;;;;;;2.23;2.13;;;14.80;99.90;;;;;;6241019;22;20446;-71
2022/09/29 13:05:33;;;;;;;2.93;2.73;;;14.80;99.90;;;;;;6238963;23;20428;-70
2022/09/29 13:08:12;;;;;;;2.10;2.00;;;14.70;99.90;;;;;;6238041;23;20408;-71
2022/09/29 13:10:55;;;;;;;2.10;2.00;;;14.80;99.90;;;;;;6237389;22;20943;-72
2022/09/29 13:13:43;;;;;;;3.10;2.83;;;14.80;99.90;;;;;;6237355;23;20406;-71
2022/09/29 13:16:20;;;;;;;2.33;2.23;;;14.90;99.90;;;;;;6174504;23;20474;-71
2022/09/29 13:19:12;;;;;;;2.80;2.60;;;15.00;99.90;;;;;;6241898;23;20412;-70
2022/09/29 13:21:51;;;;;;;3.20;3.00;;;15.00;99.90;;;;;;6241748;22;20979;-70
2022/09/29 13:24:35;;;;;;;2.40;2.30;;;15.00;99.90;;;;;;6240367;23;20432;-70
2022/09/29 13:27:29;;;;;;;2.63;2.43;;;15.00;99.90;;;;;;6242039;23;20406;-70
2022/09/29 13:30:02;;;;;;;1.63;1.63;;;15.00;99.90;;;;;;6239856;23;20413;-71
2022/09/29 13:32:31;;;;;;;1.90;1.77;;;15.00;99.90;;;;;;6240872;22;20444;-70
2022/09/29 13:35:01;;;;;;;1.97;1.87;;;15.00;99.90;;;;;;6240841;23;20972;-70
2022/09/29 13:37:33;;;;;;;1.80;1.70;;;14.90;99.90;;;;;;6251996;23;21054;-71
2022/09/29 13:40:03;;;;;;;2.33;2.10;;;14.90;99.90;;;;;;6241671;23;20404;-70
2022/09/29 13:42:42;;;;;;;8.90;2.83;;;14.90;99.90;;;;;;6242323;22;20477;-71
2022/09/29 13:45:43;;;;;;;2.30;2.20;;;15.00;99.90;;;;;;6242719;23;20452;-71
2022/09/29 13:48:49;;;;;;;2.00;2.00;;;15.00;99.90;;;;;;6249729;23;20892;-70
2022/09/29 13:51:49;;;;;;;1.97;1.87;;;15.10;99.90;;;;;;6240727;22;20467;-70
2022/09/29 13:54:38;;;;;;;2.27;2.10;;;15.10;99.90;;;;;;6240799;23;20406;-70
2022/09/29 13:57:28;;;;;;;1.50;1.50;;;15.10;99.90;;;;;;6252796;23;20436;-71
2022/09/29 14:00:23;;;;;;;1.90;1.80;;;15.00;99.90;;;;;;6242742;23;20407;-70
2022/09/29 14:03:21;;;;;;;2.60;2.40;;;15.00;99.90;;;;;;6241815;23;20696;-70
2022/09/29 14:05:56;;;;;;;2.50;1.90;;;15.00;99.90;;;;;;6240061;23;20787;-69
2022/09/29 14:08:31;;;;;;;1.77;1.77;;;14.90;99.90;;;;;;6242775;23;20468;-70
2022/09/29 14:11:14;;;;;;;1.80;1.80;;;14.80;99.90;;;;;;6240849;22;20954;-70
2022/09/29 14:13:46;;;;;;;2.47;2.27;;;14.70;99.90;;;;;;6240921;23;20887;-70
2022/09/29 14:16:23;;;;;;;1.97;1.80;;;14.70;99.90;;;;;;6241893;23;20405;-70
2022/09/29 14:18:54;;;;;;;1.80;1.80;;;14.70;99.90;;;;;;6242182;23;20401;-70
2022/09/29 14:22:01;;;;;;;1.70;1.70;;;14.60;99.90;;;;;;6243242;22;20524;-70
2022/09/29 14:24:49;;;;;;;1.60;1.50;;;14.60;99.90;;;;;;6230846;23;20411;-70
2022/09/29 14:27:32;;;;;;;1.83;1.73;;;14.60;99.90;;;;;;6241231;23;20404;-71
2022/09/29 14:30:16;;;;;;;1.33;1.33;;;14.70;99.90;;;;;;6241259;23;20404;-71
2022/09/29 14:32:50;;;;;;;2.27;1.63;;;14.70;99.90;;;;;;6242610;23;20415;-69
2022/09/29 14:35:25;;;;;;;3.10;2.80;;;14.70;99.90;;;;;;6239696;23;20928;-71
2022/09/29 14:37:59;;;;;;;1.50;1.50;;;14.60;99.90;;;;;;6239301;23;20404;-71
2022/09/29 14:40:30;;;;;;;2.03;2.03;;;14.60;99.90;;;;;;6242735;22;20430;-72
2022/09/29 14:43:15;;;;;;;2.13;2.13;;;14.50;99.90;;;;;;6242851;23;20766;-70
2022/09/29 14:52:12;;;;;;;1.43;1.43;;;14.40;99.90;;;;;;6242651;22;20423;-71
2022/09/29 14:54:48;;;;;;;1.73;1.73;;;14.40;99.90;;;;;;6266002;23;20403;-72
2022/09/29 14:57:34;;;;;;;2.63;2.53;;;14.30;99.90;;;;;;6269998;22;20388;-72
2022/09/29 15:00:11;;;;;;;2.53;2.50;;;14.20;99.90;;;;;;6270119;22;20388;-72
2022/09/29 15:02:44;;;;;;;3.20;3.10;;;14.10;99.90;;;;;;6267962;22;20609;-70
2022/09/29 15:05:26;;;;;;;2.20;2.13;;;14.00;99.90;;;;;;6269310;22;20423;-70
2022/09/29 15:07:53;;;;;;;2.03;1.73;;;14.00;99.90;;;;;;6267843;23;20448;-72
2022/09/29 15:10:23;;;;;;;2.30;2.20;;;13.90;99.90;;;;;;6258536;22;20418;-71
2022/09/29 15:12:52;;;;;;;2.40;2.30;;;13.80;99.90;;;;;;6243503;23;20842;-70
2022/09/29 15:15:34;;;;;;;8.77;2.23;;;13.70;99.90;;;;;;6243890;23;20441;-70
2022/09/29 15:18:09;;;;;;;1.93;1.83;;;13.50;99.90;;;;;;6242949;23;20423;-70
2022/09/29 15:20:53;;;;;;;4.73;3.33;;;13.40;99.90;;;;;;6243864;22;20407;-69
2022/09/29 15:23:46;;;;;;;2.93;2.63;;;13.30;99.90;;;;;;6242721;23;20521;-70
2022/09/29 15:26:15;;;;;;;2.83;2.73;;;13.10;99.90;;;;;;6242493;23;20888;-72
2022/09/29 15:28:43;;;;;;;2.33;2.23;;;12.90;99.90;;;;;;6241193;23;20422;-70
2022/09/29 15:31:12;;;;;;;7.70;2.40;;;12.80;99.90;;;;;;6243062;22;20442;-69
2022/09/29 15:33:42;;;;;;;3.10;2.90;;;12.70;99.90;;;;;;6242191;23;20430;-71
2022/09/29 15:36:18;;;;;;;2.60;2.40;;;12.70;99.90;;;;;;6243218;23;20424;-71
2022/09/29 15:38:45;;;;;;;1.60;1.60;;;12.60;99.90;;;;;;6242880;23;20406;-71
2022/09/29 15:41:18;;;;;;;3.22;3.03;;;12.40;99.90;;;;;;6243571;22;20448;-71
2022/09/29 15:43:55;;;;;;;2.83;2.73;;;12.30;99.90;;;;;;6242563;23;20234;-71
2022/09/29 15:46:23;;;;;;;2.20;2.20;;;12.10;99.90;;;;;;6242257;23;20814;-70
2022/09/29 15:49:10;;;;;;;4.30;3.45;;;11.90;99.90;;;;;;6241097;23;20182;-71
2022/09/29 15:51:38;;;;;;;2.42;2.28;;;11.80;99.90;;;;;;6238999;22;20588;-71
2022/09/29 15:54:08;;;;;;;3.80;3.50;;;11.70;99.90;;;;;;6241726;23;20186;-72
2022/09/29 15:57:41;;;;;;;1.73;1.63;;;11.60;99.90;;;;;;6240831;23;20183;-70
2022/09/29 15:59:42;;;;;;;1.33;1.33;;;11.40;99.90;;;;;;6241094;23;20184;-71
2022/09/29 16:02:19;;;;;;;1.45;1.35;;;11.30;99.90;;;;;;6240135;22;20209;-71
2022/09/29 16:04:50;;;;;;;1.50;1.50;;;11.20;99.90;;;;;;6241422;23;20190;-71
2022/09/29 16:07:22;;;;;;;2.13;2.13;;;11.20;99.90;;;;;;6238122;23;20179;-71
2022/09/29 16:09:49;;;;;;;2.03;1.92;;;11.30;99.90;;;;;;6237836;23;20254;-71
2022/09/29 16:12:19;;;;;;;1.75;1.65;;;11.30;99.90;;;;;;6239973;22;20289;-71
2022/09/29 16:14:48;;;;;;;3.80;2.08;;;11.20;99.90;;;;;;6238709;23;20209;-71
2022/09/29 16:17:14;;;;;;;2.45;2.33;;;11.20;99.90;;;;;;6237819;23;20194;-71
2022/09/29 16:19:46;;;;;;;1.55;1.55;;;11.20;99.90;;;;;;6238406;23;20179;-70
2022/09/29 16:22:19;;;;;;;1.60;1.60;;;11.20;99.90;;;;;;6238672;22;20217;-70
2022/09/29 16:24:53;;;;;;;1.60;1.60;;;11.20;99.90;;;;;;6240491;23;20193;-71
2022/09/29 16:27:46;;;;;;;2.33;2.22;;;11.20;99.90;;;;;;6241805;23;20190;-72
2022/09/29 16:30:24;;;;;;;2.55;2.30;;;11.20;99.90;;;;;;6240256;23;20171;-70
2022/09/29 16:33:03;;;;;;;3.78;3.58;;;11.20;99.90;;;;;;6242594;23;20225;-70
2022/09/29 16:35:57;;;;;;;2.97;2.88;;;11.20;99.90;;;;;;6239822;23;20167;-70
2022/09/29 16:38:39;;;;;;;2.88;2.67;;;11.20;99.90;;;;;;6239776;23;20527;-70
2022/09/29 16:41:20;;;;;;;3.05;2.92;;;11.20;99.90;;;;;;6236341;22;20223;-72
2022/09/29 16:43:48;;;;;;;2.60;2.50;;;11.20;99.90;;;;;;6240260;23;20313;-71
2022/09/29 16:46:19;;;;;;;3.17;2.88;;;11.20;99.90;;;;;;6240137;23;20202;-72
2022/09/29 16:48:49;;;;;;;4.65;4.25;;;11.30;99.90;;;;;;6238354;23;20181;-71
2022/09/29 16:51:17;;;;;;;3.20;3.00;;;11.20;99.90;;;;;;6240067;22;20284;-71
2022/09/29 16:53:45;;;;;;;4.57;4.15;;;11.20;99.90;;;;;;6237954;23;20183;-70
2022/09/29 16:56:18;;;;;;;3.58;3.30;;;11.20;99.90;;;;;;6239935;23;20233;-71
2022/09/29 16:58:45;;;;;;;3.83;3.63;;;11.10;99.90;;;;;;6238470;23;20588;-71
2022/09/29 17:01:12;;;;;;;2.58;2.47;;;11.10;99.90;;;;;;6237611;22;20342;-70
2022/09/29 17:03:41;;;;;;;3.13;2.97;;;11.10;99.90;;;;;;6238261;23;20491;-70
2022/09/29 17:06:09;;;;;;;3.15;2.70;;;11.00;99.90;;;;;;6240836;23;20241;-71
2022/09/29 17:08:36;;;;;;;1.80;1.70;;;10.90;99.90;;;;;;6240240;23;20529;-70
2022/09/29 17:11:02;;;;;;;3.08;2.88;;;10.90;99.90;;;;;;6238420;22;20668;-71
2022/09/29 17:13:32;;;;;;;2.90;2.78;;;10.90;99.90;;;;;;6242588;23;20182;-72
2022/09/29 17:15:59;;;;;;;3.90;3.58;;;10.90;99.90;;;;;;6243771;23;20270;-72
2022/09/29 17:18:27;;;;;;;3.38;3.05;;;10.90;99.90;;;;;;6242009;23;20185;-71
2022/09/29 17:20:56;;;;;;;2.40;2.28;;;10.90;99.90;;;;;;6241485;22;20218;-71
2022/09/29 17:23:22;;;;;;;3.50;3.28;;;10.90;99.90;;;;;;6245196;23;20165;-71
2022/09/29 17:25:49;;;;;;;4.38;3.95;;;10.80;99.90;;;;;;6243811;23;20229;-71
2022/09/29 17:28:23;;;;;;;3.13;2.92;;;10.80;99.90;;;;;;6243551;23;20632;-72